Time;durP1;ratioP1;P1;durP2;ratioP2;P2;SDS_P1;SDS_P2;PMS_P1;PMS_P2;Temp;Humidity;BMP_temperature;BMP_pressure;BME280_temperature;BME280_humidity;BME280_pressure;Samples;Min_cycle;Max_cycle;Signal;HPM_P1;HPM_P2
2021/03/12 00:01:15;;;;;;;22.20;3.58;;;5.90;96.40;;;;;;5029383;28;20046;-78
2021/03/12 00:03:41;;;;;;;25.90;3.35;;;5.90;96.30;;;;;;5024140;28;20104;-78
2021/03/12 00:06:09;;;;;;;19.48;2.30;;;6.00;96.30;;;;;;5029010;28;20448;-78
2021/03/12 00:08:44;;;;;;;15.90;2.92;;;6.00;96.30;;;;;;5024815;28;20054;-78
2021/03/12 00:11:10;;;;;;;;;;;6.10;96.00;;;;;;5025839;28;20112;-78
2021/03/12 00:13:37;;;;;;;14.95;1.98;;;6.00;95.60;;;;;;5039157;28;19921;-78
2021/03/12 00:16:04;;;;;;;17.70;2.65;;;6.10;96.00;;;;;;5025353;28;20064;-78
2021/03/12 00:18:42;;;;;;;18.05;2.50;;;6.10;96.00;;;;;;5041831;28;20059;-78
2021/03/12 00:21:10;;;;;;;18.73;3.20;;;6.20;95.60;;;;;;5023120;28;20548;-79
2021/03/12 00:23:38;;;;;;;15.43;2.40;;;6.20;95.60;;;;;;5033368;28;20045;-79
2021/03/12 00:26:05;;;;;;;15.82;2.28;;;6.20;95.30;;;;;;5023186;28;20053;-79
2021/03/12 00:28:31;;;;;;;13.88;2.58;;;6.20;95.20;;;;;;5012747;28;20117;-79
2021/03/12 00:30:56;;;;;;;17.50;2.65;;;6.20;94.90;;;;;;5021967;28;20053;-79
2021/03/12 00:33:27;;;;;;;17.88;1.60;;;6.10;95.10;;;;;;5024021;28;20037;-79
2021/03/12 00:35:53;;;;;;;15.63;2.40;;;6.00;94.90;;;;;;5025359;28;20551;-78
2021/03/12 00:38:19;;;;;;;16.23;2.47;;;6.00;95.00;;;;;;5011083;28;20042;-78
2021/03/12 00:40:48;;;;;;;11.65;1.90;;;6.00;95.30;;;;;;5024554;28;20450;-79
2021/03/12 00:43:14;;;;;;;13.20;2.40;;;6.00;95.10;;;;;;5030779;28;20049;-79
2021/03/12 00:45:42;;;;;;;13.60;1.95;;;6.00;95.10;;;;;;5025795;28;20038;-79
2021/03/12 00:48:09;;;;;;;14.02;2.17;;;6.00;95.10;;;;;;5021077;28;20044;-79
2021/03/12 00:50:38;;;;;;;16.92;2.20;;;6.10;94.60;;;;;;5014720;28;20049;-78
2021/03/12 00:53:05;;;;;;;16.45;2.45;;;6.10;94.70;;;;;;5025703;28;20748;-78
2021/03/12 00:55:31;;;;;;;13.75;2.22;;;6.10;94.60;;;;;;5014835;28;20052;-79
2021/03/12 00:57:57;;;;;;;14.32;1.95;;;6.10;94.40;;;;;;5040836;28;20056;-78
2021/03/12 01:00:28;;;;;;;14.05;2.13;;;6.10;94.50;;;;;;5029109;28;20034;-78
2021/03/12 01:02:54;;;;;;;14.73;2.90;;;6.10;94.30;;;;;;5015070;28;20041;-78
2021/03/12 01:05:20;;;;;;;11.23;2.13;;;6.10;94.50;;;;;;5031697;28;20052;-78
2021/03/12 01:07:47;;;;;;;9.05;2.08;;;6.10;94.40;;;;;;5026769;28;20136;-78
2021/03/12 01:10:16;;;;;;;15.80;2.47;;;6.10;94.40;;;;;;5022044;28;20044;-78
2021/03/12 01:12:44;;;;;;;10.77;1.88;;;6.10;94.40;;;;;;5018403;28;20049;-78
2021/03/12 01:15:13;;;;;;;11.73;1.63;;;6.20;94.10;;;;;;5027988;28;20631;-78
2021/03/12 01:17:39;;;;;;;9.73;1.38;;;6.20;94.10;;;;;;5031385;28;20067;-80
2021/03/12 01:20:08;;;;;;;11.07;1.98;;;6.20;94.10;;;;;;5029356;28;20079;-79
2021/03/12 01:22:35;;;;;;;11.85;2.08;;;6.10;94.10;;;;;;5023903;28;20042;-79
2021/03/12 01:25:01;;;;;;;11.43;1.75;;;6.10;94.00;;;;;;5022447;28;20041;-79
2021/03/12 01:27:27;;;;;;;6.75;1.30;;;6.00;94.20;;;;;;5018534;28;20676;-79
2021/03/12 01:29:56;;;;;;;13.75;2.20;;;6.00;93.80;;;;;;5020420;28;20488;-79
2021/03/12 01:32:21;;;;;;;11.90;1.52;;;6.00;94.00;;;;;;5026796;28;20428;-79
2021/03/12 01:34:49;;;;;;;8.43;2.00;;;6.00;93.80;;;;;;5024580;28;20040;-79
2021/03/12 01:37:14;;;;;;;10.27;1.80;;;5.90;94.00;;;;;;5016712;28;20110;-79
2021/03/12 01:39:40;;;;;;;10.68;2.33;;;5.90;93.90;;;;;;5030423;28;20044;-79
2021/03/12 01:42:06;;;;;;;9.02;1.73;;;5.90;93.90;;;;;;5022136;28;20042;-79
2021/03/12 01:44:32;;;;;;;8.13;1.70;;;5.90;94.00;;;;;;5031660;28;20041;-79
2021/03/12 01:46:58;;;;;;;9.75;1.80;;;5.80;94.00;;;;;;5030540;28;20082;-79
2021/03/12 01:49:23;;;;;;;11.65;2.47;;;5.80;94.10;;;;;;5035249;28;20052;-79
2021/03/12 01:51:49;;;;;;;10.32;1.95;;;5.80;94.20;;;;;;5025727;28;20037;-79
2021/03/12 01:54:15;;;;;;;10.85;2.03;;;5.80;94.20;;;;;;5028335;28;20041;-79
2021/03/12 01:56:41;;;;;;;7.82;1.67;;;5.70;94.00;;;;;;5028703;28;20037;-79
2021/03/12 01:59:06;;;;;;;14.48;2.20;;;5.70;93.90;;;;;;5033568;28;20137;-79
2021/03/12 02:01:32;;;;;;;8.80;1.95;;;5.70;93.90;;;;;;5024108;28;20037;-80
2021/03/12 02:03:58;;;;;;;9.57;1.88;;;5.70;94.30;;;;;;5033932;28;20055;-79
2021/03/12 02:06:24;;;;;;;9.38;1.98;;;5.70;94.10;;;;;;5016760;28;20096;-79
2021/03/12 02:08:49;;;;;;;10.45;2.58;;;5.70;94.40;;;;;;5046636;28;20431;-79
2021/03/12 02:11:19;;;;;;;9.77;1.95;;;5.70;94.10;;;;;;5028817;28;20354;-79
2021/03/12 02:14:04;;;;;;;6.85;2.10;;;5.80;93.80;;;;;;5036696;28;20412;-79
2021/03/12 02:16:51;;;;;;;11.63;2.22;;;5.90;93.20;;;;;;5017888;28;20430;-79
2021/03/12 02:19:35;;;;;;;11.43;2.10;;;5.90;93.60;;;;;;5039948;28;20061;-79
2021/03/12 02:22:08;;;;;;;8.57;2.22;;;5.80;93.50;;;;;;5019410;28;20038;-79
2021/03/12 02:24:49;;;;;;;13.57;2.63;;;5.70;93.70;;;;;;5029530;28;20064;-79
2021/03/12 02:27:17;;;;;;;9.05;2.30;;;5.60;93.70;;;;;;5026298;28;20041;-79
2021/03/12 02:29:58;;;;;;;9.80;1.98;;;5.70;94.00;;;;;;5036471;28;20046;-79
2021/03/12 02:32:36;;;;;;;11.13;2.38;;;5.60;94.00;;;;;;5022804;28;20042;-79
2021/03/12 02:35:07;;;;;;;11.73;2.13;;;5.70;93.90;;;;;;5021315;28;20030;-79
2021/03/12 02:37:33;;;;;;;9.80;1.95;;;5.60;94.10;;;;;;5028913;28;20076;-79
2021/03/12 02:40:01;;;;;;;12.00;2.55;;;5.60;93.80;;;;;;5027896;28;20105;-79
2021/03/12 02:42:27;;;;;;;10.40;1.98;;;5.60;93.90;;;;;;5017882;28;20152;-79
2021/03/12 02:44:58;;;;;;;8.45;2.15;;;5.50;93.70;;;;;;5024624;28;20119;-79
2021/03/12 02:47:30;;;;;;;9.73;1.85;;;5.40;93.70;;;;;;5026791;28;20037;-79
2021/03/12 02:49:56;;;;;;;10.93;2.08;;;5.40;93.60;;;;;;5029222;28;20036;-80
2021/03/12 02:52:24;;;;;;;14.32;2.00;;;5.30;93.70;;;;;;5038345;28;20046;-79
2021/03/12 02:54:51;;;;;;;10.15;2.58;;;5.20;93.80;;;;;;5036475;28;20049;-78
2021/03/12 02:57:22;;;;;;;6.85;1.77;;;5.20;94.00;;;;;;5022821;28;20037;-79
2021/03/12 02:59:51;;;;;;;8.88;2.00;;;5.20;94.20;;;;;;5018008;28;20096;-79
2021/03/12 03:02:23;;;;;;;10.20;2.17;;;5.20;94.40;;;;;;5021249;28;20049;-79
2021/03/12 03:04:51;;;;;;;10.15;2.15;;;5.20;94.20;;;;;;5017490;28;20060;-79
2021/03/12 03:07:19;;;;;;;11.10;2.03;;;5.20;94.20;;;;;;5020053;28;20136;-79
2021/03/12 03:09:45;;;;;;;16.67;3.08;;;5.20;94.10;;;;;;5020444;28;20490;-79
2021/03/12 03:12:15;;;;;;;11.52;2.10;;;5.10;94.20;;;;;;5040106;28;20057;-80
2021/03/12 03:14:42;;;;;;;6.28;2.10;;;5.10;94.20;;;;;;5015420;28;20104;-79
2021/03/12 03:17:10;;;;;;;14.43;2.55;;;5.10;94.30;;;;;;5048969;28;20068;-79
2021/03/12 03:19:39;;;;;;;12.27;2.42;;;5.10;94.30;;;;;;5019342;28;20485;-79
2021/03/12 03:22:06;;;;;;;10.98;2.63;;;5.10;94.30;;;;;;5047251;28;20504;-79
2021/03/12 03:24:32;;;;;;;11.43;1.50;;;5.00;94.40;;;;;;5028054;28;20029;-79
2021/03/12 03:26:59;;;;;;;12.82;2.42;;;5.00;94.20;;;;;;5018549;28;20070;-79
2021/03/12 03:29:25;;;;;;;8.73;1.77;;;5.00;94.40;;;;;;5023110;28;20087;-79
2021/03/12 03:31:51;;;;;;;11.25;1.95;;;5.00;94.40;;;;;;5048457;28;20053;-79
2021/03/12 03:34:17;;;;;;;12.23;2.72;;;4.90;94.50;;;;;;5024231;28;20044;-79
2021/03/12 03:36:44;;;;;;;12.25;2.30;;;4.90;94.60;;;;;;5026327;28;20517;-79
2021/03/12 03:39:12;;;;;;;8.73;1.85;;;4.80;94.80;;;;;;5042058;28;20145;-79
2021/03/12 03:41:50;;;;;;;9.90;2.20;;;4.80;94.80;;;;;;5003578;28;20042;-79
2021/03/12 03:44:24;;;;;;;14.85;1.90;;;4.70;94.90;;;;;;5015598;28;20072;-79
2021/03/12 03:46:54;;;;;;;10.48;2.40;;;4.70;94.90;;;;;;5008474;28;20512;-79
2021/03/12 03:49:20;;;;;;;13.85;2.55;;;4.70;95.00;;;;;;5015141;28;20040;-79
2021/03/12 03:51:47;;;;;;;16.10;2.25;;;4.60;95.00;;;;;;5024295;28;20459;-79
2021/03/12 03:54:20;;;;;;;16.52;2.47;;;4.60;95.00;;;;;;5014630;28;20457;-79
2021/03/12 03:56:46;;;;;;;12.75;2.38;;;4.60;95.10;;;;;;5038976;28;20054;-79
2021/03/12 03:59:14;;;;;;;19.58;2.33;;;4.60;95.10;;;;;;5017700;28;20045;-79
2021/03/12 04:01:40;;;;;;;12.02;1.73;;;4.60;95.20;;;;;;5021371;28;20484;-79
2021/03/12 04:04:08;;;;;;;14.23;2.22;;;4.50;95.20;;;;;;5032179;28;20065;-79
2021/03/12 04:06:35;;;;;;;13.15;1.92;;;4.50;95.20;;;;;;5027145;28;20045;-79
2021/03/12 04:09:03;;;;;;;17.60;3.20;;;4.50;95.20;;;;;;5027660;28;20117;-79
2021/03/12 04:11:33;;;;;;;13.75;2.00;;;4.50;95.20;;;;;;5021294;28;20874;-79
2021/03/12 04:14:01;;;;;;;18.58;2.70;;;4.50;95.50;;;;;;5026246;28;20134;-79
2021/03/12 04:16:28;;;;;;;13.05;2.05;;;4.40;95.30;;;;;;5024175;28;20041;-79
2021/03/12 04:18:55;;;;;;;10.00;1.90;;;4.40;95.40;;;;;;5031271;28;20092;-79
2021/03/12 04:21:21;;;;;;;13.43;2.20;;;4.40;95.40;;;;;;5030593;28;20088;-79
2021/03/12 04:23:48;;;;;;;15.15;2.42;;;4.40;95.50;;;;;;5023795;28;20066;-79
2021/03/12 04:26:14;;;;;;;13.65;2.15;;;4.40;95.50;;;;;;5042937;28;20453;-79
2021/03/12 04:28:41;;;;;;;14.93;1.95;;;4.40;95.50;;;;;;5030096;28;20042;-80
2021/03/12 04:31:07;;;;;;;16.92;2.03;;;4.30;95.40;;;;;;5025543;28;20075;-78
2021/03/12 04:33:33;;;;;;;10.95;1.60;;;4.30;95.40;;;;;;5025715;28;20117;-79
2021/03/12 04:35:59;;;;;;;16.15;2.10;;;4.30;95.40;;;;;;5018769;28;20044;-78
2021/03/12 04:38:26;;;;;;;11.50;2.00;;;4.30;95.50;;;;;;5047417;28;20501;-78
2021/03/12 04:40:52;;;;;;;18.73;1.88;;;4.30;95.50;;;;;;5018964;28;20041;-78
2021/03/12 04:43:20;;;;;;;11.77;1.88;;;4.30;95.50;;;;;;5019909;28;20034;-77
2021/03/12 04:45:46;;;;;;;10.38;1.48;;;4.30;95.60;;;;;;5023646;28;20035;-78
2021/03/12 04:48:13;;;;;;;13.55;1.80;;;4.30;95.60;;;;;;5022317;28;20121;-79
2021/03/12 04:50:40;;;;;;;13.40;1.73;;;4.30;95.50;;;;;;5024120;28;20151;-79
2021/03/12 04:53:06;;;;;;;13.15;1.92;;;4.30;95.40;;;;;;5015022;28;20502;-79
2021/03/12 04:55:33;;;;;;;13.30;1.85;;;4.40;95.40;;;;;;5015990;28;20494;-79
2021/03/12 04:58:00;;;;;;;16.85;1.73;;;4.30;95.40;;;;;;5032393;28;20054;-79
2021/03/12 05:00:26;;;;;;;10.05;1.80;;;4.30;95.40;;;;;;5018129;28;20122;-79
2021/03/12 05:02:54;;;;;;;13.25;1.90;;;4.30;95.40;;;;;;5025709;28;20044;-78
2021/03/12 05:05:22;;;;;;;12.38;1.80;;;4.30;95.60;;;;;;5034065;28;20049;-79
2021/03/12 05:07:48;;;;;;;17.33;2.60;;;4.30;95.60;;;;;;5018375;28;20390;-80
2021/03/12 05:10:14;;;;;;;13.48;2.83;;;4.30;95.60;;;;;;5031481;28;20124;-80
2021/03/12 05:12:40;;;;;;;11.75;2.13;;;4.30;95.70;;;;;;5028328;28;20482;-79
2021/03/12 05:15:06;;;;;;;15.98;1.98;;;4.30;95.70;;;;;;5024294;28;20049;-79
2021/03/12 05:17:32;;;;;;;8.90;1.50;;;4.30;95.70;;;;;;5021493;28;20042;-79
2021/03/12 05:19:58;;;;;;;11.48;2.15;;;4.30;95.80;;;;;;5015463;28;20117;-79
2021/03/12 05:22:24;;;;;;;11.85;2.58;;;4.30;95.80;;;;;;5017347;28;20041;-79
2021/03/12 05:24:50;;;;;;;9.00;1.80;;;4.30;95.80;;;;;;5027574;28;20515;-79
2021/03/12 05:27:15;;;;;;;21.33;3.13;;;4.40;95.90;;;;;;5034719;28;20359;-79
2021/03/12 05:29:42;;;;;;;12.88;2.25;;;4.40;95.90;;;;;;5033091;28;20465;-79
2021/03/12 05:32:07;;;;;;;19.50;2.47;;;4.40;95.90;;;;;;5033898;28;20041;-78
2021/03/12 05:34:33;;;;;;;9.85;2.00;;;4.40;95.90;;;;;;5023214;28;20045;-79
2021/03/12 05:36:59;;;;;;;14.23;2.80;;;4.40;95.90;;;;;;5034924;28;20063;-79
2021/03/12 05:39:25;;;;;;;20.80;3.50;;;4.40;95.90;;;;;;5013753;28;20038;-80
2021/03/12 05:41:51;;;;;;;15.32;2.50;;;4.40;96.00;;;;;;5017731;28;20041;-80
2021/03/12 05:44:18;;;;;;;13.25;2.10;;;4.40;96.10;;;;;;5020439;28;20190;-80
2021/03/12 05:46:45;;;;;;;17.13;2.75;;;4.40;96.10;;;;;;5016061;28;20168;-79
2021/03/12 05:49:13;;;;;;;10.85;2.10;;;4.40;96.10;;;;;;5014044;28;20074;-79
2021/03/12 05:51:39;;;;;;;18.50;2.28;;;4.40;96.10;;;;;;5025699;28;20034;-79
2021/03/12 05:54:06;;;;;;;21.05;2.42;;;4.40;96.20;;;;;;5028308;28;20629;-79
2021/03/12 05:56:33;;;;;;;10.63;2.25;;;4.40;96.10;;;;;;5016888;28;20462;-79
2021/03/12 05:59:00;;;;;;;15.85;3.28;;;4.40;96.10;;;;;;5013143;28;20125;-79
2021/03/12 06:01:26;;;;;;;16.30;2.33;;;4.40;96.10;;;;;;5013482;28;20046;-77
2021/03/12 06:03:52;;;;;;;15.90;2.65;;;4.40;96.10;;;;;;5010278;28;20058;-79
2021/03/12 06:06:17;;;;;;;11.43;2.47;;;4.50;96.00;;;;;;5033942;28;20048;-79
2021/03/12 06:08:44;;;;;;;15.75;2.25;;;4.50;96.10;;;;;;5017604;28;20126;-79
2021/03/12 06:11:10;;;;;;;14.32;2.00;;;4.50;95.90;;;;;;5021563;28;20045;-78
2021/03/12 06:13:55;;;;;;;12.10;1.92;;;4.60;95.90;;;;;;5028822;28;20488;-78
2021/03/12 06:16:26;;;;;;;11.80;2.08;;;4.60;95.80;;;;;;5019898;28;20049;-78
2021/03/12 06:19:10;;;;;;;16.23;2.60;;;4.70;95.90;;;;;;5029247;28;20516;-79
2021/03/12 06:21:37;;;;;;;13.85;2.70;;;4.70;95.70;;;;;;5012285;28;20133;-78
2021/03/12 06:24:28;;;;;;;19.52;2.88;;;4.70;95.90;;;;;;5019335;28;20455;-78
2021/03/12 06:26:54;;;;;;;14.40;2.42;;;4.70;95.80;;;;;;5031862;28;20052;-78
2021/03/12 06:29:34;;;;;;;17.35;3.95;;;4.70;95.80;;;;;;5034508;28;20049;-79
2021/03/12 06:32:02;;;;;;;12.77;1.88;;;4.80;95.50;;;;;;5024416;28;20037;-78
2021/03/12 06:34:28;;;;;;;14.20;2.28;;;4.80;95.50;;;;;;5012445;28;20124;-78
2021/03/12 06:36:54;;;;;;;11.63;2.35;;;4.80;95.40;;;;;;5018619;28;20053;-79
2021/03/12 06:39:30;;;;;;;15.38;2.53;;;4.90;95.40;;;;;;5013663;28;20043;-77
2021/03/12 06:42:06;;;;;;;14.40;3.22;;;4.90;95.40;;;;;;5012325;28;20784;-78
2021/03/12 06:44:36;;;;;;;15.27;3.45;;;4.90;95.20;;;;;;5029584;28;20073;-77
2021/03/12 06:47:21;;;;;;;19.00;3.33;;;5.00;95.30;;;;;;5015342;28;20053;-77
2021/03/12 06:49:54;;;;;;;18.60;3.20;;;5.10;95.10;;;;;;5023574;28;20042;-77
2021/03/12 06:52:33;;;;;;;12.18;2.67;;;5.10;95.20;;;;;;5025435;28;20033;-79
2021/03/12 06:54:59;;;;;;;15.95;2.40;;;5.10;95.10;;;;;;5022711;28;20034;-78
2021/03/12 06:57:25;;;;;;;17.85;3.10;;;5.20;95.30;;;;;;5019948;28;20061;-78
2021/03/12 07:00:05;;;;;;;13.10;2.25;;;5.20;95.20;;;;;;5024641;28;20042;-77
2021/03/12 07:02:35;;;;;;;10.10;2.45;;;5.30;95.10;;;;;;5022049;28;20467;-80
2021/03/12 07:05:02;;;;;;;16.05;2.83;;;5.40;95.00;;;;;;5021895;28;20125;-80
2021/03/12 07:07:44;;;;;;;12.65;2.33;;;5.50;94.90;;;;;;5019927;28;20049;-79
2021/03/12 07:10:10;;;;;;;15.70;2.58;;;5.60;94.60;;;;;;5020152;28;20067;-78
2021/03/12 07:12:51;;;;;;;10.77;2.15;;;5.60;94.70;;;;;;5017058;28;20098;-77
2021/03/12 07:15:18;;;;;;;13.50;2.30;;;5.70;94.50;;;;;;5026214;28;20068;-78
2021/03/12 07:17:45;;;;;;;14.80;2.70;;;5.70;94.10;;;;;;5024425;28;20050;-77
2021/03/12 07:20:15;;;;;;;12.45;2.20;;;5.80;94.50;;;;;;5014097;28;20034;-77
2021/03/12 07:22:43;;;;;;;12.88;2.85;;;5.80;94.50;;;;;;5030050;28;20048;-77
2021/03/12 07:25:09;;;;;;;14.40;2.42;;;6.00;94.20;;;;;;5043682;28;20132;-77
2021/03/12 07:27:46;;;;;;;17.35;3.58;;;6.00;94.00;;;;;;5014666;28;20049;-78
2021/03/12 07:30:14;;;;;;;14.25;3.08;;;6.10;93.90;;;;;;5020904;28;20037;-78
2021/03/12 07:32:44;;;;;;;17.33;2.72;;;6.20;93.60;;;;;;5018732;28;20458;-77
2021/03/12 07:35:12;;;;;;;19.55;3.50;;;6.20;93.20;;;;;;5013535;28;20541;-77
2021/03/12 07:37:43;;;;;;;12.73;2.60;;;6.20;93.20;;;;;;5029370;28;20123;-78
2021/03/12 07:40:11;;;;;;;17.08;3.00;;;6.30;93.60;;;;;;5020858;28;20033;-78
2021/03/12 07:42:37;;;;;;;11.85;2.83;;;6.30;93.10;;;;;;5022212;28;20037;-78
2021/03/12 07:45:03;;;;;;;11.43;2.33;;;6.30;92.90;;;;;;5017634;28;20465;-77
2021/03/12 07:47:31;;;;;;;9.73;2.03;;;6.40;93.30;;;;;;5017559;28;20065;-78
2021/03/12 07:49:57;;;;;;;10.25;2.90;;;6.40;92.80;;;;;;5018599;28;20449;-78
2021/03/12 07:52:51;;;;;;;16.60;2.67;;;6.50;92.70;;;;;;5020393;28;20042;-78
2021/03/12 07:55:40;;;;;;;15.60;2.33;;;6.60;92.30;;;;;;5025707;28;20041;-77
2021/03/12 07:58:08;;;;;;;16.77;2.72;;;6.70;91.90;;;;;;5019537;28;20470;-77
2021/03/12 08:00:51;;;;;;;9.45;2.22;;;6.80;92.80;;;;;;5025723;28;20045;-78
2021/03/12 08:03:31;;;;;;;12.52;2.60;;;6.90;92.30;;;;;;5027249;28;20132;-78
2021/03/12 08:05:57;;;;;;;13.45;2.33;;;7.00;92.20;;;;;;5024245;28;20412;-79
2021/03/12 08:08:32;;;;;;;13.40;2.75;;;7.20;92.20;;;;;;5025285;28;20068;-78
2021/03/12 08:11:16;;;;;;;;;;;7.30;91.50;;;;;;5025896;28;20030;-78
2021/03/12 08:13:42;;;;;;;11.70;2.15;;;7.40;90.30;;;;;;5019188;28;19917;-77
2021/03/12 08:16:08;;;;;;;19.38;3.00;;;7.50;91.50;;;;;;5017303;28;20049;-77
2021/03/12 08:18:34;;;;;;;13.57;2.70;;;7.60;91.00;;;;;;5016129;28;20041;-77
2021/03/12 08:21:33;;;;;;;12.55;2.03;;;7.60;90.90;;;;;;5024432;28;20061;-77
2021/03/12 08:24:00;;;;;;;13.27;2.22;;;7.80;88.40;;;;;;5011623;28;20074;-77
2021/03/12 08:26:49;;;;;;;12.52;1.90;;;8.00;90.20;;;;;;5017386;28;20064;-77
2021/03/12 08:29:35;;;;;;;15.45;2.00;;;8.20;89.50;;;;;;5012461;28;20378;-78
2021/03/12 08:32:21;;;;;;;15.25;2.58;;;8.30;86.20;;;;;;5026450;28;20034;-78
2021/03/12 08:34:47;;;;;;;20.00;3.03;;;8.10;88.00;;;;;;5011841;28;20466;-78
2021/03/12 08:37:25;;;;;;;13.48;2.17;;;8.00;88.40;;;;;;5019007;28;20053;-79
2021/03/12 08:40:14;;;;;;;14.43;2.28;;;8.00;88.80;;;;;;5023696;28;20411;-79
2021/03/12 08:43:01;;;;;;;11.43;2.42;;;8.10;85.60;;;;;;5024381;28;20111;-79
2021/03/12 08:45:33;;;;;;;14.65;2.78;;;8.10;86.30;;;;;;5025785;28;20057;-77
2021/03/12 08:48:05;;;;;;;12.43;2.95;;;8.20;87.60;;;;;;5014778;28;20049;-78
2021/03/12 08:50:33;;;;;;;16.02;2.92;;;8.30;88.50;;;;;;5034381;28;20140;-78
2021/03/12 08:53:00;;;;;;;15.13;2.53;;;8.40;88.40;;;;;;5027073;28;20168;-78
2021/03/12 08:55:26;;;;;;;14.38;2.92;;;8.40;87.80;;;;;;5025847;28;20389;-78
2021/03/12 08:58:09;;;;;;;13.90;2.78;;;8.40;87.30;;;;;;5026831;28;20064;-78
2021/03/12 09:01:07;;;;;;;16.38;3.10;;;8.40;87.30;;;;;;5015603;28;20195;-78
2021/03/12 09:03:36;;;;;;;12.82;3.78;;;8.30;84.90;;;;;;5011817;28;20402;-77
2021/03/12 09:06:36;;;;;;;14.55;2.58;;;8.20;87.20;;;;;;5011021;28;20042;-78
2021/03/12 09:09:26;;;;;;;19.23;3.38;;;8.20;88.50;;;;;;5028624;28;20049;-77
2021/03/12 09:12:10;;;;;;;16.42;3.08;;;8.20;87.50;;;;;;5021831;28;20034;-77
2021/03/12 09:14:43;;;;;;;13.98;2.30;;;8.30;88.40;;;;;;5011482;28;20427;-78
2021/03/12 09:17:09;;;;;;;15.80;3.30;;;8.30;87.20;;;;;;5011200;28;20034;-77
2021/03/12 09:19:35;;;;;;;16.10;2.95;;;8.30;87.20;;;;;;5030395;28;20436;-77
2021/03/12 09:22:01;;;;;;;17.30;2.70;;;8.30;87.00;;;;;;5026387;28;20083;-76
2021/03/12 09:24:28;;;;;;;17.42;3.08;;;8.30;87.10;;;;;;5011176;28;20065;-76
2021/03/12 09:26:53;;;;;;;18.10;3.65;;;8.30;87.70;;;;;;5036482;28;20139;-77
2021/03/12 09:29:19;;;;;;;14.38;2.60;;;8.50;87.70;;;;;;5025567;28;20050;-78
2021/03/12 09:31:45;;;;;;;15.10;3.17;;;8.80;87.30;;;;;;5011416;28;20507;-77
2021/03/12 09:34:15;;;;;;;15.68;3.05;;;9.00;85.50;;;;;;5025293;28;20037;-77
2021/03/12 09:36:46;;;;;;;20.10;3.20;;;9.20;84.80;;;;;;5028748;28;20054;-78
2021/03/12 09:39:18;;;;;;;15.27;2.60;;;9.20;84.30;;;;;;5013206;28;20038;-77
2021/03/12 09:41:55;;;;;;;14.60;3.20;;;9.10;84.10;;;;;;5011555;28;20033;-77
2021/03/12 09:44:22;;;;;;;15.82;3.33;;;9.10;83.90;;;;;;5008114;28;20045;-77
2021/03/12 09:46:53;;;;;;;15.52;3.60;;;9.00;83.20;;;;;;5026402;28;20045;-77
2021/03/12 09:49:31;;;;;;;17.40;3.50;;;9.00;82.80;;;;;;5014537;28;20053;-78
2021/03/12 09:52:06;;;;;;;23.25;4.03;;;8.90;83.80;;;;;;5011584;28;20046;-78
2021/03/12 09:54:33;;;;;;;22.67;3.67;;;8.80;85.60;;;;;;5008514;28;20458;-77
2021/03/12 09:56:59;;;;;;;15.25;2.60;;;8.90;86.20;;;;;;5011437;28;20572;-77
2021/03/12 09:59:36;;;;;;;20.10;4.70;;;8.80;83.40;;;;;;5017974;28;20125;-79
2021/03/12 10:02:07;;;;;;;14.73;3.72;;;8.80;84.40;;;;;;5026023;28;20478;-78
2021/03/12 10:04:41;;;;;;;18.40;3.30;;;8.90;84.90;;;;;;5009817;28;20132;-78
2021/03/12 10:07:15;;;;;;;15.68;3.53;;;8.90;85.00;;;;;;5031864;28;20111;-78
2021/03/12 10:09:42;;;;;;;16.45;3.92;;;8.90;82.40;;;;;;5028862;28;20057;-78
2021/03/12 10:12:23;;;;;;;15.38;3.05;;;8.80;84.40;;;;;;5029575;28;20030;-79
2021/03/12 10:14:52;;;;;;;20.05;3.80;;;8.80;83.40;;;;;;5024302;28;20132;-79
2021/03/12 10:17:23;;;;;;;12.82;2.40;;;9.10;85.70;;;;;;5013885;28;20536;-78
2021/03/12 10:19:56;;;;;;;15.05;2.92;;;9.20;84.00;;;;;;5013109;28;20045;-78
2021/03/12 10:22:37;;;;;;;24.63;8.85;;;9.20;82.60;;;;;;5014962;28;20118;-79
2021/03/12 10:25:16;;;;;;;21.60;3.97;;;9.40;81.60;;;;;;5036051;28;20512;-78
2021/03/12 10:27:43;;;;;;;15.80;3.67;;;9.50;81.30;;;;;;5014749;28;20116;-78
2021/03/12 10:30:18;;;;;;;17.08;3.25;;;9.70;82.30;;;;;;5013677;28;20040;-78
2021/03/12 10:32:50;;;;;;;13.80;2.67;;;9.90;82.10;;;;;;5030244;28;20041;-79
2021/03/12 10:35:24;;;;;;;14.48;3.17;;;10.00;78.70;;;;;;5013196;28;20045;-78
2021/03/12 10:37:56;;;;;;;19.52;3.03;;;10.00;80.60;;;;;;5014653;28;20042;-78
2021/03/12 10:40:23;;;;;;;20.92;4.15;;;10.10;78.70;;;;;;5013896;28;20037;-78
2021/03/12 10:42:49;;;;;;;15.32;2.97;;;10.00;80.50;;;;;;5014569;28;20034;-79
2021/03/12 10:45:29;;;;;;;18.38;4.20;;;10.00;80.70;;;;;;5012525;28;20092;-78
2021/03/12 10:48:05;;;;;;;15.25;3.13;;;9.90;78.00;;;;;;5014875;28;20041;-78
2021/03/12 10:50:37;;;;;;;19.00;3.63;;;9.80;79.70;;;;;;5021187;28;20124;-78
2021/03/12 10:53:11;;;;;;;22.45;3.40;;;9.70;80.70;;;;;;5014977;28;20061;-78
2021/03/12 10:55:41;;;;;;;21.75;3.90;;;9.60;80.00;;;;;;5013367;28;20430;-78
2021/03/12 10:58:25;;;;;;;13.27;3.13;;;9.50;80.80;;;;;;5030770;28;20068;-78
2021/03/12 11:01:03;;;;;;;16.48;3.50;;;9.60;80.90;;;;;;5027454;28;20448;-78
2021/03/12 11:03:29;;;;;;;21.52;4.00;;;9.40;80.70;;;;;;5032873;28;20045;-78
2021/03/12 11:05:55;;;;;;;18.00;3.72;;;9.30;81.60;;;;;;5029846;28;20034;-78
2021/03/12 11:08:21;;;;;;;16.08;3.92;;;9.20;80.90;;;;;;5046068;28;20038;-78
2021/03/12 11:10:47;;;;;;;15.75;3.45;;;9.10;84.40;;;;;;5032925;28;20049;-78
2021/03/12 11:13:13;;;;;;;20.02;3.13;;;8.90;87.20;;;;;;5012231;28;20034;-78
2021/03/12 11:15:39;;;;;;;20.38;4.10;;;8.60;87.60;;;;;;5014018;28;20048;-78
2021/03/12 11:18:05;;;;;;;14.48;3.15;;;8.30;88.30;;;;;;5032901;28;20125;-78
2021/03/12 11:20:31;;;;;;;15.18;3.35;;;8.10;89.90;;;;;;5032995;28;20033;-78
2021/03/12 11:22:56;;;;;;;17.00;3.65;;;7.90;90.00;;;;;;5016546;28;20141;-78
2021/03/12 11:25:22;;;;;;;17.15;3.53;;;7.70;90.90;;;;;;5029803;28;20128;-77
2021/03/12 11:27:48;;;;;;;17.63;4.40;;;7.60;91.60;;;;;;5026786;28;20084;-77
2021/03/12 11:30:17;;;;;;;16.08;3.75;;;7.30;92.40;;;;;;5030534;28;20050;-77
2021/03/12 11:32:44;;;;;;;16.20;4.15;;;7.10;93.10;;;;;;5028391;28;20132;-79
2021/03/12 11:35:10;;;;;;;25.88;5.28;;;7.00;93.70;;;;;;5033431;28;20445;-79
2021/03/12 11:37:36;;;;;;;23.65;5.38;;;6.90;94.60;;;;;;5017374;28;20373;-79
2021/03/12 11:40:05;;;;;;;12.23;3.17;;;6.80;95.10;;;;;;5034412;28;20132;-78
2021/03/12 11:42:31;;;;;;;11.68;3.70;;;6.70;95.50;;;;;;5029784;28;20033;-78
2021/03/12 11:44:58;;;;;;;7.97;2.53;;;6.60;95.60;;;;;;5023322;28;20040;-78
2021/03/12 11:47:25;;;;;;;13.45;3.10;;;6.50;95.80;;;;;;5030549;28;20041;-78
2021/03/12 11:49:50;;;;;;;11.00;3.00;;;6.50;96.10;;;;;;5028801;28;20037;-78
2021/03/12 11:52:17;;;;;;;10.18;2.72;;;6.50;96.00;;;;;;5033127;28;20457;-78
2021/03/12 11:54:43;;;;;;;11.13;3.53;;;6.50;96.30;;;;;;5020543;28;20124;-78
2021/03/12 11:57:09;;;;;;;12.98;3.60;;;6.50;96.50;;;;;;5014795;28;20125;-78
2021/03/12 11:59:35;;;;;;;13.80;4.05;;;6.60;96.50;;;;;;5012464;28;20042;-77
2021/03/12 12:02:03;;;;;;;11.07;3.53;;;6.60;96.70;;;;;;5014435;28;20379;-77
2021/03/12 12:04:28;;;;;;;9.15;3.15;;;6.60;96.40;;;;;;5021036;28;20489;-77
2021/03/12 12:06:55;;;;;;;8.82;2.42;;;6.60;96.40;;;;;;5030124;28;20055;-78
2021/03/12 12:09:21;;;;;;;11.73;3.25;;;6.60;96.40;;;;;;5029064;28;20474;-77
2021/03/12 12:11:48;;;;;;;10.68;4.03;;;6.60;96.40;;;;;;5031558;28;20041;-77
2021/03/12 12:14:14;;;;;;;11.05;3.95;;;6.70;96.60;;;;;;5027132;28;20053;-78
2021/03/12 12:16:40;;;;;;;16.02;4.45;;;6.80;96.50;;;;;;5021200;28;20084;-77
2021/03/12 12:19:10;;;;;;;11.38;3.60;;;6.90;96.80;;;;;;5038664;28;20408;-78
2021/03/12 12:21:35;;;;;;;12.20;4.53;;;6.90;96.70;;;;;;5030371;28;20061;-77
2021/03/12 12:24:01;;;;;;;13.05;3.72;;;7.00;96.80;;;;;;5028062;28;20172;-78
2021/03/12 12:26:28;;;;;;;11.23;3.83;;;7.10;95.90;;;;;;5031649;28;20539;-78
2021/03/12 12:28:54;;;;;;;14.40;3.92;;;7.10;95.90;;;;;;5030021;28;20045;-78
2021/03/12 12:31:19;;;;;;;13.00;4.45;;;7.10;96.10;;;;;;5023234;28;20107;-77
2021/03/12 12:33:45;;;;;;;10.65;4.75;;;7.20;96.20;;;;;;5019021;28;20080;-77
2021/03/12 12:36:12;;;;;;;16.40;4.55;;;7.30;96.10;;;;;;5025985;28;20048;-77
2021/03/12 12:38:38;;;;;;;14.88;4.78;;;7.40;95.80;;;;;;5030534;28;20485;-77
2021/03/12 12:41:04;;;;;;;22.65;6.97;;;7.40;95.90;;;;;;5020170;28;20054;-78
2021/03/12 12:43:30;;;;;;;17.85;5.00;;;7.60;95.80;;;;;;5011647;28;20056;-79
2021/03/12 12:45:56;;;;;;;16.70;5.35;;;7.80;96.20;;;;;;5027442;28;20111;-78
2021/03/12 12:48:22;;;;;;;18.35;4.60;;;7.90;95.70;;;;;;5013819;28;20045;-79
2021/03/12 12:50:51;;;;;;;13.90;5.18;;;8.00;95.80;;;;;;5018575;28;20047;-79
2021/03/12 12:53:16;;;;;;;16.73;4.18;;;8.20;95.50;;;;;;5015033;28;20050;-79
2021/03/12 12:55:42;;;;;;;16.55;4.05;;;8.30;94.90;;;;;;5017339;28;20451;-79
2021/03/12 12:58:11;;;;;;;15.82;4.07;;;8.40;94.60;;;;;;5022557;28;20060;-80
2021/03/12 13:00:40;;;;;;;12.45;4.25;;;8.40;93.70;;;;;;5022517;28;20049;-78